Time;durP1;ratioP1;P1;durP2;ratioP2;P2;SDS_P1;SDS_P2;PMS_P1;PMS_P2;Temp;Humidity;BMP_temperature;BMP_pressure;BME280_temperature;BME280_humidity;BME280_pressure;Samples;Min_cycle;Max_cycle;Signal;HPM_P1;HPM_P2
2020/12/02 00:00:38;;;;;;;6.47;5.97;;;;;;;-0.07;93.62;95566.34;5037082;28;20251;-79
2020/12/02 00:03:11;;;;;;;6.80;6.20;;;;;;;-0.02;93.57;95574.56;5029657;28;20220;-79
2020/12/02 00:05:43;;;;;;;7.47;6.80;;;;;;;0.04;92.58;95568.91;5031899;28;20231;-79
2020/12/02 00:08:16;;;;;;;8.63;7.70;;;;;;;-0.05;93.27;95564.44;5030959;28;20213;-78
2020/12/02 00:10:44;;;;;;;9.37;6.57;;;;;;;-0.11;93.08;95554.53;5048548;28;20432;-79
2020/12/02 00:13:16;;;;;;;6.47;5.87;;;;;;;-0.17;92.77;95550.69;5048194;28;20796;-79
2020/12/02 00:15:43;;;;;;;6.70;5.87;;;;;;;-0.19;93.06;95568.09;5039386;28;20216;-79
2020/12/02 00:18:10;;;;;;;6.83;5.90;;;;;;;-0.17;92.94;95565.41;5044172;28;20654;-79
2020/12/02 00:20:37;;;;;;;7.43;5.67;;;;;;;-0.27;92.90;95570.50;5043155;28;20232;-79
2020/12/02 00:23:04;;;;;;;8.57;6.97;;;;;;;-0.26;92.74;95571.31;5046862;28;20309;-79
2020/12/02 00:25:31;;;;;;;6.70;6.10;;;;;;;-0.30;93.33;95576.72;5033587;28;20470;-79
2020/12/02 00:28:00;;;;;;;7.33;6.60;;;;;;;-0.35;93.38;95573.69;5044711;28;20245;-79
2020/12/02 00:30:28;;;;;;;7.60;5.33;;;;;;;-0.36;93.60;95572.03;5044717;28;20222;-79
2020/12/02 00:33:06;;;;;;;6.10;5.57;;;;;;;-0.36;93.52;95576.41;5060013;28;20285;-79
2020/12/02 00:35:33;;;;;;;13.27;5.07;;;;;;;-0.45;93.69;95572.75;5052034;28;20222;-79
2020/12/02 00:38:00;;;;;;;6.90;4.83;;;;;;;-0.42;93.06;95567.31;5031843;28;20230;-79
2020/12/02 00:40:31;;;;;;;5.20;4.13;;;;;;;-0.50;93.71;95568.84;5043247;28;20223;-78
2020/12/02 00:42:58;;;;;;;6.83;5.83;;;;;;;-0.47;94.21;95566.84;5054028;28;20239;-79
2020/12/02 00:45:25;;;;;;;10.70;5.67;;;;;;;-0.43;93.99;95564.84;5032903;28;20274;-79
2020/12/02 00:47:53;;;;;;;4.37;4.07;;;;;;;-0.51;93.80;95573.22;5047322;28;20328;-79
2020/12/02 00:50:22;;;;;;;9.43;6.13;;;;;;;-0.51;93.67;95557.66;5031372;28;20498;-78
2020/12/02 00:53:04;;;;;;;9.90;5.70;;;;;;;-0.61;93.95;95567.91;5032801;28;20618;-78
2020/12/02 00:55:32;;;;;;;27.30;21.93;;;;;;;-0.61;94.56;95569.69;5051802;28;20517;-79
2020/12/02 00:58:01;;;;;;;11.23;9.00;;;;;;;-0.70;95.13;95567.81;5035710;28;20578;-79
2020/12/02 01:00:32;;;;;;;10.77;6.47;;;;;;;-0.58;95.10;95566.84;5035526;28;20236;-79
2020/12/02 01:03:07;;;;;;;10.47;5.87;;;;;;;-0.57;95.13;95563.31;5034891;28;20309;-79
2020/12/02 01:05:34;;;;;;;9.13;6.87;;;;;;;-0.65;94.91;95565.66;5033719;28;20677;-78
2020/12/02 01:08:23;;;;;;;8.43;4.43;;;;;;;-0.71;94.17;95566.16;5050594;28;20490;-78
2020/12/02 01:10:55;;;;;;;5.90;5.20;;;;;;;-0.76;94.85;95563.09;5035909;28;20255;-78
2020/12/02 01:13:22;;;;;;;17.07;5.33;;;;;;;-0.79;94.79;95563.31;5034007;28;20561;-78
2020/12/02 01:15:49;;;;;;;5.23;4.60;;;;;;;-0.79;95.03;95568.50;5036090;28;20505;-77
2020/12/02 01:18:20;;;;;;;5.47;4.93;;;;;;;-0.83;95.18;95567.06;5042324;28;20662;-78
2020/12/02 01:20:56;;;;;;;5.37;4.90;;;;;;;-0.96;95.19;95562.84;5047157;28;20254;-78
2020/12/02 01:23:24;;;;;;;7.53;5.53;;;;;;;-0.83;94.68;95561.88;5046395;28;20251;-78
2020/12/02 01:25:52;;;;;;;5.80;5.20;;;;;;;-0.75;94.74;95552.59;5036884;28;20569;-78
2020/12/02 01:28:27;;;;;;;6.83;6.13;;;;;;;-0.75;94.31;95551.78;5043745;28;20612;-78
2020/12/02 01:30:56;;;;;;;6.23;5.80;;;;;;;-0.81;94.55;95555.69;5039698;28;20747;-78
2020/12/02 01:33:25;;;;;;;4.40;3.97;;;;;;;-0.89;94.53;95553.66;5059872;28;20636;-78
2020/12/02 01:35:52;;;;;;;8.00;5.77;;;;;;;-0.98;94.49;95546.59;5060692;28;20465;-78
2020/12/02 01:38:25;;;;;;;5.80;5.10;;;;;;;-1.01;95.01;95546.81;5054696;28;20551;-78
2020/12/02 01:40:53;;;;;;;5.70;5.20;;;;;;;-1.04;95.09;95544.44;5032944;28;20608;-77
2020/12/02 01:43:20;;;;;;;8.20;7.20;;;;;;;-0.91;95.13;95550.38;5033205;28;20506;-78
2020/12/02 01:45:50;;;;;;;8.57;6.13;;;;;;;-0.93;95.22;95547.03;5032143;28;21112;-78
2020/12/02 01:48:55;;;;;;;6.73;5.63;;;;;;;-0.99;95.22;95547.53;5052401;28;20497;-78
2020/12/02 01:51:46;;;;;;;5.37;4.70;;;;;;;-1.02;94.61;95539.97;5034056;28;20492;-77
2020/12/02 01:54:18;;;;;;;7.37;5.00;;;;;;;-1.03;95.30;95537.50;5032460;28;20471;-78
2020/12/02 01:56:53;;;;;;;6.57;5.23;;;;;;;-0.99;95.03;95552.72;5051896;28;20565;-78
2020/12/02 01:59:30;;;;;;;7.80;6.40;;;;;;;-0.88;94.87;95555.31;5044230;28;20822;-78
2020/12/02 02:02:08;;;;;;;6.33;5.73;;;;;;;-0.95;94.72;95554.13;5061819;28;20466;-78
2020/12/02 02:04:44;;;;;;;8.90;7.53;;;;;;;-0.96;94.85;95551.66;5043340;28;20226;-78
2020/12/02 02:07:16;;;;;;;7.00;5.33;;;;;;;-0.92;94.84;95548.69;5039796;28;21069;-78
2020/12/02 02:09:46;;;;;;;5.27;4.53;;;;;;;-0.97;94.72;95548.22;5044163;28;20846;-78
2020/12/02 02:12:39;;;;;;;6.07;5.50;;;;;;;-0.94;94.73;95545.41;5032677;28;20474;-78
2020/12/02 02:15:16;;;;;;;8.73;6.33;;;;;;;-0.90;95.07;95551.19;5034781;28;20483;-78
2020/12/02 02:17:43;;;;;;;7.10;6.40;;;;;;;-0.92;95.20;95540.09;5034523;28;20888;-78
2020/12/02 02:20:13;;;;;;;10.43;6.70;;;;;;;-0.88;94.82;95541.53;5034915;28;20482;-78
2020/12/02 02:22:41;;;;;;;8.27;7.57;;;;;;;-0.75;95.65;95531.88;5035192;28;20474;-78
2020/12/02 02:25:12;;;;;;;9.27;7.13;;;;;;;-0.66;95.30;95532.94;5035645;28;20565;-78
2020/12/02 02:27:40;;;;;;;11.90;9.23;;;;;;;-0.63;94.87;95538.72;5036311;28;20573;-77
2020/12/02 02:30:08;;;;;;;10.90;6.90;;;;;;;-0.54;94.63;95536.34;5032121;28;20477;-77
2020/12/02 02:32:35;;;;;;;9.67;7.70;;;;;;;-0.55;94.40;95525.13;5027723;28;20717;-78
2020/12/02 02:35:05;;;;;;;11.53;8.23;;;;;;;-0.48;94.69;95523.72;5034102;28;20526;-78
2020/12/02 02:37:33;;;;;;;12.07;8.73;;;;;;;-0.41;94.48;95522.31;5035029;28;20323;-77
2020/12/02 02:40:01;;;;;;;10.67;8.00;;;;;;;-0.42;94.76;95525.84;5034209;28;20732;-77
2020/12/02 02:42:32;;;;;;;8.17;6.77;;;;;;;-0.37;94.17;95520.28;5050713;28;20306;-78
2020/12/02 02:45:02;;;;;;;10.20;8.30;;;;;;;-0.48;93.84;95518.53;5041543;28;20463;-78
2020/12/02 02:47:29;;;;;;;11.40;9.47;;;;;;;-0.50;94.14;95517.84;5044826;28;20449;-78
2020/12/02 02:49:55;;;;;;;10.87;8.67;;;;;;;-0.38;94.12;95514.28;5039204;28;20547;-78
2020/12/02 02:52:22;;;;;;;13.27;8.33;;;;;;;-0.44;94.50;95511.38;5045007;28;20224;-77
2020/12/02 02:54:49;;;;;;;12.10;10.70;;;;;;;-0.48;93.79;95502.97;5044552;28;20285;-78
2020/12/02 02:57:16;;;;;;;9.77;8.73;;;;;;;-0.54;94.33;95500.91;5040715;28;20220;-77
2020/12/02 02:59:43;;;;;;;10.33;9.20;;;;;;;-0.56;94.55;95507.94;5033153;28;20769;-77
2020/12/02 03:02:13;;;;;;;9.00;8.10;;;;;;;-0.55;94.50;95504.41;5040057;28;20323;-78
2020/12/02 03:04:40;;;;;;;9.47;8.60;;;;;;;-0.56;94.63;95507.94;5052350;28;20236;-78
2020/12/02 03:07:13;;;;;;;14.40;9.83;;;;;;;-0.59;94.74;95501.25;5042907;28;20272;-77
2020/12/02 03:09:41;;;;;;;13.63;9.93;;;;;;;-0.49;94.71;95503.94;5032784;28;20224;-78
2020/12/02 03:12:08;;;;;;;12.17;9.77;;;;;;;-0.47;94.90;95502.03;5033090;28;20237;-78
2020/12/02 03:14:41;;;;;;;17.57;11.53;;;;;;;-0.48;95.07;95510.75;5031109;28;20251;-78
2020/12/02 03:17:13;;;;;;;12.33;9.90;;;;;;;-0.43;94.70;95503.47;5031910;28;20232;-78
2020/12/02 03:19:48;;;;;;;14.33;10.87;;;;;;;-0.36;94.30;95494.25;5040451;28;20706;-78
2020/12/02 03:22:16;;;;;;;18.77;11.83;;;;;;;-0.40;94.51;95489.44;5043012;28;20240;-77
2020/12/02 03:24:44;;;;;;;13.10;11.23;;;;;;;-0.36;94.30;95504.63;5036259;28;20673;-78
2020/12/02 03:27:11;;;;;;;16.77;13.40;;;;;;;-0.36;94.22;95503.81;5040438;28;20231;-78
2020/12/02 03:29:38;;;;;;;15.10;11.63;;;;;;;-0.28;93.75;95502.22;5037590;28;20310;-78
2020/12/02 03:32:05;;;;;;;18.50;13.20;;;;;;;-0.35;93.95;95500.28;5038819;28;20309;-78
2020/12/02 03:34:33;;;;;;;27.83;17.90;;;;;;;-0.30;93.99;95496.34;5041599;28;20342;-78
2020/12/02 03:37:00;;;;;;;19.73;12.43;;;;;;;-0.33;93.73;95499.19;5040606;28;20226;-78
2020/12/02 03:39:27;;;;;;;18.97;14.53;;;;;;;-0.30;93.52;95501.53;5042352;28;20237;-78
2020/12/02 03:41:54;;;;;;;16.47;13.90;;;;;;;-0.27;93.14;95503.09;5032364;28;20225;-77
2020/12/02 03:44:21;;;;;;;19.67;14.80;;;;;;;-0.33;93.18;95509.56;5032734;28;20499;-78
2020/12/02 03:46:47;;;;;;;25.87;14.57;;;;;;;-0.37;92.99;95508.16;5033472;28;20277;-78
2020/12/02 03:49:14;;;;;;;19.73;14.13;;;;;;;-0.43;93.21;95508.66;5034190;28;20627;-77
2020/12/02 03:51:42;;;;;;;20.10;13.83;;;;;;;-0.46;93.00;95508.03;5041957;28;20462;-78
2020/12/02 03:54:10;;;;;;;20.23;15.63;;;;;;;-0.53;93.37;95506.91;5039481;28;20460;-78
2020/12/02 03:56:37;;;;;;;26.07;17.93;;;;;;;-0.63;92.52;95501.63;5041281;28;20312;-78
2020/12/02 03:59:04;;;;;;;22.87;14.63;;;;;;;-0.54;92.41;95513.03;5034434;28;20475;-77
2020/12/02 04:01:31;;;;;;;24.47;15.67;;;;;;;-0.48;92.06;95510.75;5038600;28;20478;-77
2020/12/02 04:03:58;;;;;;;27.63;17.07;;;;;;;-0.61;91.89;95510.09;5041708;28;20329;-77
2020/12/02 04:06:25;;;;;;;27.40;17.53;;;;;;;-0.57;92.22;95517.47;5042645;28;20308;-78
2020/12/02 04:08:53;;;;;;;20.20;15.73;;;;;;;-0.62;91.81;95508.44;5042304;28;20290;-78
2020/12/02 04:11:20;;;;;;;22.50;17.03;;;;;;;-0.59;91.67;95501.25;5042892;28;20560;-77
2020/12/02 04:13:46;;;;;;;25.63;18.40;;;;;;;-0.60;91.88;95501.38;5041727;28;20553;-77
2020/12/02 04:16:14;;;;;;;19.63;16.17;;;;;;;-0.64;91.18;95494.75;5041323;28;20505;-78
2020/12/02 04:18:41;;;;;;;24.93;16.90;;;;;;;-0.70;91.22;95500.44;5058648;28;20224;-77
2020/12/02 04:21:07;;;;;;;22.23;17.10;;;;;;;-0.79;91.54;95495.97;5046197;28;20966;-78
2020/12/02 04:23:34;;;;;;;21.93;17.00;;;;;;;-0.81;91.55;95495.25;5030520;28;20981;-78
2020/12/02 04:26:02;;;;;;;24.67;14.63;;;;;;;-0.77;91.29;95486.31;5036347;28;20482;-77
2020/12/02 04:28:29;;;;;;;18.57;16.07;;;;;;;-0.85;91.16;95492.06;5042949;28;20496;-77
2020/12/02 04:30:58;;;;;;;23.50;16.57;;;;;;;-0.97;91.27;95488.66;5039846;28;21053;-78
2020/12/02 04:33:26;;;;;;;19.43;15.40;;;;;;;-0.99;91.75;95490.56;5047257;28;21084;-77
2020/12/02 04:35:53;;;;;;;17.10;14.33;;;;;;;-1.05;91.82;95485.84;5047814;28;21000;-78
2020/12/02 04:38:19;;;;;;;21.93;18.13;;;;;;;-1.05;92.19;95485.84;5047150;28;20466;-78
2020/12/02 04:40:46;;;;;;;22.93;17.07;;;;;;;-0.91;92.03;95483.03;5047314;28;20549;-78
2020/12/02 04:43:20;;;;;;;25.67;15.57;;;;;;;-0.99;92.36;95487.97;5062320;28;20909;-78
2020/12/02 04:45:48;;;;;;;17.93;14.00;;;;;;;-0.93;91.77;95479.69;5040784;28;20873;-77
2020/12/02 04:48:18;;;;;;;15.93;13.67;;;;;;;-0.88;91.29;95485.38;5045182;28;20849;-77
2020/12/02 04:50:46;;;;;;;14.47;12.23;;;;;;;-0.86;90.41;95486.06;5045507;28;20545;-77
2020/12/02 04:53:15;;;;;;;13.47;12.10;;;;;;;-0.90;89.65;95489.84;5045870;28;21029;-77
2020/12/02 04:55:47;;;;;;;19.03;14.57;;;;;;;-0.96;89.91;95479.94;5047021;28;20472;-77
2020/12/02 04:58:27;;;;;;;13.60;11.30;;;;;;;-1.05;90.28;95478.06;5051394;28;20549;-77
2020/12/02 05:00:54;;;;;;;17.03;14.60;;;;;;;-1.06;90.40;95481.59;5045741;28;20473;-78
2020/12/02 05:03:23;;;;;;;24.20;17.67;;;;;;;-1.15;91.07;95490.06;5046872;28;20550;-77
2020/12/02 05:05:59;;;;;;;21.23;15.83;;;;;;;-1.23;91.68;95484.66;5046291;28;20553;-77
2020/12/02 05:08:30;;;;;;;32.13;19.53;;;;;;;-1.27;92.22;95485.84;5047317;28;20883;-77
2020/12/02 05:10:58;;;;;;;23.77;16.57;;;;;;;-1.33;92.55;95483.69;5053604;28;21049;-78
2020/12/02 05:13:26;;;;;;;34.83;18.23;;;;;;;-1.34;92.88;95477.69;5045262;28;20545;-78
2020/12/02 05:16:08;;;;;;;24.23;17.83;;;;;;;-1.15;92.86;95480.53;5039870;28;20770;-77
2020/12/02 05:18:35;;;;;;;27.97;16.70;;;;;;;-1.11;92.29;95485.47;5040038;28;20986;-77
2020/12/02 05:21:18;;;;;;;20.10;15.90;;;;;;;-1.05;92.45;95472.88;5043928;28;20496;-78
2020/12/02 05:24:01;;;;;;;24.43;16.63;;;;;;;-1.07;91.98;95477.38;5034808;28;20603;-77
2020/12/02 05:26:30;;;;;;;20.53;17.63;;;;;;;-1.10;91.76;95472.41;5033797;28;20465;-78
2020/12/02 05:28:58;;;;;;;26.60;18.23;;;;;;;-1.11;91.73;95475.94;5035928;28;20651;-77
2020/12/02 05:31:29;;;;;;;27.37;19.63;;;;;;;-1.16;91.35;95485.84;5034584;28;20470;-77
2020/12/02 05:34:06;;;;;;;32.43;18.67;;;;;;;-1.11;91.27;95480.28;5049648;28;20492;-77
2020/12/02 05:36:38;;;;;;;24.00;16.23;;;;;;;-1.15;91.32;95477.13;5043310;28;20466;-78
2020/12/02 05:39:09;;;;;;;22.03;18.53;;;;;;;-1.15;91.27;95484.91;5039471;28;20976;-78
2020/12/02 05:41:36;;;;;;;28.27;20.37;;;;;;;-1.21;91.93;95485.34;5054137;28;20478;-78
2020/12/02 05:44:12;;;;;;;30.87;21.70;;;;;;;-1.26;92.29;95482.31;5038661;28;23742;-78
2020/12/02 05:46:43;;;;;;;30.07;16.63;;;;;;;-1.23;92.16;95482.06;5039036;28;20545;-77
2020/12/02 05:49:13;;;;;;;24.10;16.27;;;;;;;-1.28;92.15;95484.16;5041157;28;20512;-77
2020/12/02 05:51:41;;;;;;;20.10;13.57;;;;;;;-1.33;92.46;95476.75;5038365;28;20482;-77
2020/12/02 05:54:11;;;;;;;16.83;12.07;;;;;;;-1.36;92.34;95482.19;5041029;28;20492;-77
2020/12/02 05:56:39;;;;;;;13.60;10.23;;;;;;;-1.42;92.43;95476.63;5025158;28;20538;-77
2020/12/02 05:59:07;;;;;;;17.47;11.53;;;;;;;-1.49;92.21;95482.25;5044859;28;20756;-77
2020/12/02 06:01:34;;;;;;;16.07;11.00;;;;;;;-1.58;92.22;95477.75;5045012;28;20533;-77
2020/12/02 06:04:03;;;;;;;16.83;10.97;;;;;;;-1.45;91.65;95472.50;5036429;28;20485;-77
2020/12/02 06:06:31;;;;;;;23.00;12.97;;;;;;;-1.45;91.64;95473.34;5033734;28;20557;-78
2020/12/02 06:08:58;;;;;;;16.40;12.57;;;;;;;-1.43;91.64;95480.97;5041608;28;20686;-77
2020/12/02 06:11:34;;;;;;;19.07;14.33;;;;;;;-1.53;91.79;95473.09;5041522;28;20470;-77
2020/12/02 06:14:06;;;;;;;15.73;13.10;;;;;;;-1.52;91.96;95477.31;5053948;28;20481;-77
2020/12/02 06:16:40;;;;;;;21.40;14.77;;;;;;;-1.62;92.35;95476.34;5041410;28;20515;-77
2020/12/02 06:19:22;;;;;;;23.13;14.07;;;;;;;-1.67;92.05;95480.22;5039191;28;20528;-77
2020/12/02 06:21:52;;;;;;;22.40;14.53;;;;;;;-1.74;92.11;95483.28;5038713;28;20557;-77
2020/12/02 06:24:41;;;;;;;21.57;14.80;;;;;;;-1.74;92.21;95492.78;5052045;28;20493;-77
2020/12/02 06:27:37;;;;;;;23.00;14.40;;;;;;;-1.72;92.30;95485.75;5042356;28;20515;-77
2020/12/02 06:30:18;;;;;;;26.03;15.40;;;;;;;-1.76;92.44;95489.47;5039278;28;20478;-78
2020/12/02 06:33:14;;;;;;;29.07;18.97;;;;;;;-1.77;92.85;95487.84;5040967;28;20496;-78
2020/12/02 06:35:42;;;;;;;29.83;17.87;;;;;;;-1.82;92.77;95492.53;4992591;28;20484;-77
2020/12/02 06:38:30;;;;;;;24.80;16.90;;;;;;;-1.77;92.85;95490.41;5038176;28;20889;-77
2020/12/02 06:41:29;;;;;;;28.67;17.07;;;;;;;-1.78;93.04;95486.19;5032897;28;20516;-77
2020/12/02 06:44:17;;;;;;;30.17;17.90;;;;;;;-1.82;92.39;95483.00;5040128;28;20560;-77
2020/12/02 06:47:01;;;;;;;22.73;14.77;;;;;;;-1.89;92.77;95480.97;5041354;28;20449;-77
2020/12/02 06:49:31;;;;;;;25.17;15.80;;;;;;;-1.94;92.93;95486.47;5044685;28;20470;-77
2020/12/02 06:52:01;;;;;;;26.07;17.37;;;;;;;-1.93;93.29;95493.28;5043610;28;20553;-77
2020/12/02 06:54:30;;;;;;;27.70;18.40;;;;;;;-1.90;93.10;95497.44;5038028;28;20481;-77
2020/12/02 06:57:02;;;;;;;24.53;17.70;;;;;;;-1.87;92.94;95492.03;5031348;28;20588;-77
2020/12/02 06:59:29;;;;;;;25.60;18.00;;;;;;;-1.92;92.94;95494.97;5033649;28;21085;-77
2020/12/02 07:02:04;;;;;;;22.90;16.97;;;;;;;-1.99;92.95;95488.59;5048462;28;20496;-77
2020/12/02 07:04:36;;;;;;;26.67;15.23;;;;;;;-2.08;92.92;95495.25;5037246;28;20691;-77
2020/12/02 07:07:05;;;;;;;24.03;16.50;;;;;;;-2.02;93.12;95489.63;5041031;28;20549;-77
2020/12/02 07:09:32;;;;;;;30.43;15.23;;;;;;;-1.96;93.11;95498.69;5037498;28;20571;-77
2020/12/02 07:12:04;;;;;;;23.87;16.17;;;;;;;-2.01;92.88;95493.06;5044896;28;21002;-77
2020/12/02 07:14:34;;;;;;;19.43;14.10;;;;;;;-1.95;92.38;95502.09;5044697;28;21050;-77
2020/12/02 07:17:04;;;;;;;22.30;16.20;;;;;;;-2.02;91.96;95497.38;5053608;28;20509;-77
2020/12/02 07:19:35;;;;;;;19.77;13.53;;;;;;;-2.15;91.82;95499.22;5039662;28;20480;-77
2020/12/02 07:22:06;;;;;;;21.43;14.33;;;;;;;-2.09;91.65;95514.28;5044173;28;20523;-77
2020/12/02 07:24:36;;;;;;;16.23;11.40;;;;;;;-2.16;91.30;95509.66;5043172;28;20531;-77
2020/12/02 07:27:04;;;;;;;20.73;14.20;;;;;;;-2.19;90.79;95513.31;5040964;28;20482;-77
2020/12/02 07:29:32;;;;;;;21.40;13.03;;;;;;;-2.22;90.73;95518.66;5044760;28;20462;-77
2020/12/02 07:32:01;;;;;;;19.80;13.83;;;;;;;-2.12;90.52;95503.31;5039795;28;20490;-77
2020/12/02 07:34:31;;;;;;;24.80;15.73;;;;;;;-2.12;90.10;95514.50;5042104;28;20485;-77
2020/12/02 07:37:01;;;;;;;23.63;15.53;;;;;;;-2.15;89.96;95522.47;5043654;28;21050;-77
2020/12/02 07:39:29;;;;;;;20.00;14.97;;;;;;;-2.23;90.22;95517.03;5042115;28;20809;-77
2020/12/02 07:42:04;;;;;;;30.00;17.97;;;;;;;-2.25;90.06;95511.16;5042901;28;20826;-77
2020/12/02 07:44:37;;;;;;;20.50;16.13;;;;;;;-2.16;89.94;95515.66;5050162;28;20751;-78
2020/12/02 07:47:10;;;;;;;21.40;14.00;;;;;;;-2.28;89.31;95516.53;5041053;28;20594;-77
2020/12/02 07:49:39;;;;;;;23.60;16.10;;;;;;;-2.20;89.26;95511.63;5042586;28;20468;-78
2020/12/02 07:52:16;;;;;;;22.60;15.23;;;;;;;-2.25;89.82;95512.91;5050136;28;20476;-78
2020/12/02 07:54:43;;;;;;;24.07;14.17;;;;;;;-2.32;90.02;95508.16;5041533;28;20886;-78
2020/12/02 07:57:14;;;;;;;22.27;14.23;;;;;;;-2.30;90.66;95505.47;5042637;28;20896;-78
2020/12/02 07:59:49;;;;;;;27.63;18.67;;;;;;;-2.47;90.65;95508.41;5037001;28;20604;-78
2020/12/02 08:02:20;;;;;;;21.27;14.90;;;;;;;-2.48;90.43;95499.03;5042389;28;20504;-78
2020/12/02 08:04:58;;;;;;;21.37;15.50;;;;;;;-2.57;91.04;95498.72;5058961;28;20462;-78
2020/12/02 08:07:45;;;;;;;28.03;17.67;;;;;;;-2.41;91.29;95501.06;5048573;28;20486;-78
2020/12/02 08:10:24;;;;;;;27.27;15.30;;;;;;;-2.42;91.04;95493.44;5046923;28;20908;-77
2020/12/02 08:12:51;;;;;;;23.40;16.80;;;;;;;-2.48;91.62;95488.69;5047179;28;20467;-78
2020/12/02 08:15:18;;;;;;;31.63;17.60;;;;;;;-2.31;91.22;95490.91;5043751;28;20473;-78
2020/12/02 08:18:00;;;;;;;27.17;14.90;;;;;;;-2.40;90.44;95484.63;5047994;28;20499;-78
2020/12/02 08:20:31;;;;;;;25.93;14.77;;;;;;;-2.31;89.56;95483.16;5047995;28;20461;-78
2020/12/02 08:23:05;;;;;;;27.13;17.07;;;;;;;-2.31;89.82;95483.16;5047315;28;20469;-78
2020/12/02 08:25:36;;;;;;;27.70;14.80;;;;;;;-2.25;89.31;95487.06;5046109;28;20755;-78
2020/12/02 08:28:08;;;;;;;25.70;16.43;;;;;;;-2.27;89.11;95473.44;5043273;28;20870;-78
2020/12/02 08:30:36;;;;;;;26.77;17.00;;;;;;;-2.31;89.17;95472.81;5046234;28;21154;-79
2020/12/02 08:33:13;;;;;;;28.73;19.50;;;;;;;-2.38;89.15;95475.03;5042333;28;20478;-78
2020/12/02 08:35:42;;;;;;;29.20;15.73;;;;;;;-2.45;89.22;95454.91;5043172;28;20495;-78
2020/12/02 08:38:14;;;;;;;23.67;16.57;;;;;;;-2.26;89.30;95470.72;5043843;28;20465;-78
2020/12/02 08:40:46;;;;;;;28.67;19.87;;;;;;;-2.17;87.80;95464.91;5045127;28;20885;-78
2020/12/02 08:43:26;;;;;;;21.40;16.93;;;;;;;-2.30;87.71;95464.94;5042726;28;20515;-79
2020/12/02 08:46:14;;;;;;;24.27;15.67;;;;;;;-2.31;87.40;95458.13;5043794;28;20476;-78
2020/12/02 08:48:42;;;;;;;21.97;14.23;;;;;;;-2.25;87.56;95462.03;5055118;28;20465;-79
2020/12/02 08:51:11;;;;;;;26.17;19.03;;;;;;;-2.32;87.64;95471.16;5045573;28;20793;-79
2020/12/02 08:53:39;;;;;;;27.23;16.87;;;;;;;-2.36;88.04;95455.06;5040828;28;20493;-79
2020/12/02 08:56:21;;;;;;;26.13;18.03;;;;;;;-2.37;88.61;95455.19;5047522;28;20486;-79
2020/12/02 08:58:48;;;;;;;32.50;17.40;;;;;;;-2.32;88.38;95455.66;5044544;28;20489;-79
2020/12/02 09:01:15;;;;;;;29.33;17.67;;;;;;;-2.33;88.46;95451.44;5045006;28;21175;-79
2020/12/02 09:03:42;;;;;;;35.47;19.40;;;;;;;-2.42;88.73;95459.84;5045654;28;20465;-79
2020/12/02 09:06:14;;;;;;;28.63;18.40;;;;;;;-2.38;88.40;95448.34;5042985;28;20538;-79
2020/12/02 09:08:41;;;;;;;31.57;18.40;;;;;;;-2.31;88.40;95447.78;5042986;28;20451;-79
2020/12/02 09:11:08;;;;;;;23.47;15.50;;;;;;;-2.24;88.23;95447.34;5027411;28;20541;-78
2020/12/02 09:13:36;;;;;;;27.77;19.20;;;;;;;-2.29;87.59;95450.25;5043491;28;20889;-79
2020/12/02 09:16:03;;;;;;;29.30;18.47;;;;;;;-2.34;87.66;95447.19;5048106;28;20535;-79
2020/12/02 09:18:30;;;;;;;33.90;18.87;;;;;;;-2.28;87.52;95446.75;5052756;28;20906;-79
2020/12/02 09:20:57;;;;;;;25.60;17.90;;;;;;;-2.24;87.53;95443.00;5044473;28;21055;-79
2020/12/02 09:23:23;;;;;;;27.43;18.47;;;;;;;-2.25;87.30;95441.38;5045820;28;21202;-79
2020/12/02 09:25:51;;;;;;;29.30;18.07;;;;;;;-2.27;87.48;95445.81;5046300;28;20464;-79
2020/12/02 09:28:18;;;;;;;24.93;17.47;;;;;;;-2.22;87.30;95438.53;5044096;28;20556;-79
2020/12/02 09:30:45;;;;;;;25.10;17.83;;;;;;;-2.26;87.50;95437.13;5043398;28;21187;-79
2020/12/02 09:33:12;;;;;;;27.97;16.40;;;;;;;-2.27;87.40;95445.81;5046198;28;20544;-79
2020/12/02 09:35:40;;;;;;;29.07;19.63;;;;;;;-2.29;87.81;95439.91;5046419;28;20573;-79
2020/12/02 09:38:09;;;;;;;30.40;18.73;;;;;;;-2.32;87.53;95440.16;5045100;28;20531;-79
2020/12/02 09:40:36;;;;;;;28.97;20.60;;;;;;;-2.25;87.67;95441.38;5036677;28;20462;-79
2020/12/02 09:43:26;;;;;;;36.63;23.30;;;;;;;-2.36;87.24;95438.75;5044698;28;20461;-79
2020/12/02 09:46:03;;;;;;;32.33;19.17;;;;;;;-2.35;87.23;95437.81;5033443;28;20501;-79
2020/12/02 09:48:30;;;;;;;32.83;20.07;;;;;;;-2.29;87.27;95439.91;5046739;28;21017;-80
2020/12/02 09:50:57;;;;;;;30.50;20.47;;;;;;;-2.30;87.27;95443.44;5041836;28;20555;-79
2020/12/02 09:53:26;;;;;;;27.70;19.70;;;;;;;-2.20;87.07;95434.09;5049266;28;20473;-79
2020/12/02 09:55:53;;;;;;;31.07;19.33;;;;;;;-2.27;86.51;95443.25;5044839;28;20484;-79
2020/12/02 09:58:23;;;;;;;33.83;20.67;;;;;;;-2.24;86.59;95437.84;5046561;28;21009;-79
2020/12/02 10:00:58;;;;;;;33.37;19.97;;;;;;;-2.30;86.18;95438.28;5051297;28;20481;-79
2020/12/02 10:04:06;;;;;;;29.23;20.60;;;;;;;-2.37;86.49;95435.34;5045069;28;20544;-79
2020/12/02 10:06:57;;;;;;;31.00;19.57;;;;;;;-2.32;85.89;95440.97;4986956;28;20552;-79
2020/12/02 10:09:53;;;;;;;26.47;19.63;;;;;;;-2.33;86.46;95428.16;5041355;28;20461;-79
2020/12/02 10:12:32;;;;;;;32.07;19.60;;;;;;;-2.35;86.38;95430.03;5029203;28;20556;-79
2020/12/02 10:15:17;;;;;;;33.37;22.77;;;;;;;-2.35;86.60;95406.78;5053783;28;20473;-79
2020/12/02 10:18:12;;;;;;;29.77;21.50;;;;;;;-2.36;86.37;95424.06;5055394;28;20525;-79
2020/12/02 10:20:42;;;;;;;29.27;18.90;;;;;;;-2.31;86.01;95410.78;5033492;28;20458;-79
2020/12/02 10:23:22;;;;;;;26.57;18.63;;;;;;;-2.26;86.22;95406.13;5040530;28;20478;-79
2020/12/02 10:26:40;;;;;;;38.30;24.10;;;;;;;-2.31;86.02;95403.03;5022803;28;20474;-79
2020/12/02 10:29:12;;;;;;;30.37;20.80;;;;;;;-2.33;86.20;95402.31;4998841;28;20477;-80
2020/12/02 10:31:51;;;;;;;31.67;20.33;;;;;;;-2.43;86.73;95401.34;5035930;28;20519;-78
2020/12/02 10:34:20;;;;;;;31.90;20.73;;;;;;;-2.45;86.84;95398.06;5045788;28;21058;-77
2020/12/02 10:36:51;;;;;;;29.73;19.63;;;;;;;-2.38;86.25;95388.91;5034964;28;20597;-77
2020/12/02 10:39:24;;;;;;;33.87;20.80;;;;;;;-2.33;85.79;95390.22;5035090;28;20597;-77
2020/12/02 10:42:11;;;;;;;32.73;21.17;;;;;;;-2.41;85.66;95391.72;5034605;28;20473;-77
2020/12/02 10:44:55;;;;;;;29.00;19.60;;;;;;;-2.38;85.73;95383.75;5035010;28;20990;-77
2020/12/02 10:48:01;;;;;;;29.73;21.10;;;;;;;-2.35;85.43;95384.34;5032820;28;21063;-77
2020/12/02 10:50:31;;;;;;;25.83;17.37;;;;;;;-2.27;84.98;95381.22;5047648;28;20638;-77
2020/12/02 10:53:01;;;;;;;30.87;20.07;;;;;;;-2.35;85.28;95363.69;5049134;28;20539;-77
2020/12/02 10:55:31;;;;;;;30.90;20.33;;;;;;;-2.30;85.51;95365.91;5034117;28;20512;-77
2020/12/02 10:58:00;;;;;;;35.10;22.10;;;;;;;-2.27;84.74;95370.06;5036102;28;20550;-77
2020/12/02 11:00:27;;;;;;;37.17;22.73;;;;;;;-2.25;84.84;95357.84;5043801;28;20508;-77
2020/12/02 11:03:21;;;;;;;33.50;21.40;;;;;;;-2.23;84.61;95356.78;5033390;28;20604;-77
2020/12/02 11:05:59;;;;;;;41.37;26.07;;;;;;;-2.24;85.01;95347.38;5036408;28;20536;-77
2020/12/02 11:08:36;;;;;;;40.43;23.50;;;;;;;-2.28;84.57;95342.56;5038515;28;20739;-77
2020/12/02 11:11:19;;;;;;;53.73;33.10;;;;;;;-2.21;85.62;95349.72;5037447;28;20497;-77
2020/12/02 11:13:55;;;;;;;35.37;24.43;;;;;;;-2.21;85.93;95344.56;5036697;28;20551;-77
2020/12/02 11:16:31;;;;;;;33.03;23.50;;;;;;;-2.27;86.52;95339.88;5037216;28;20484;-77
2020/12/02 11:19:17;;;;;;;37.63;20.97;;;;;;;-2.18;85.73;95349.53;5036787;28;20516;-77
2020/12/02 11:21:59;;;;;;;31.60;22.37;;;;;;;-2.22;85.28;95340.34;5036183;28;20543;-77
2020/12/02 11:24:46;;;;;;;30.73;20.93;;;;;;;-2.22;85.24;95339.50;5035369;28;20524;-77
2020/12/02 11:27:14;;;;;;;30.17;19.67;;;;;;;-2.24;85.41;95344.81;5035294;28;20579;-77
2020/12/02 11:29:42;;;;;;;36.47;22.97;;;;;;;-2.14;84.70;95339.75;5038977;28;20469;-77
2020/12/02 11:32:48;;;;;;;26.87;19.53;;;;;;;-2.14;84.95;95334.59;5038514;28;20485;-77
2020/12/02 11:35:26;;;;;;;31.20;21.23;;;;;;;-2.12;84.54;95332.72;5033501;28;20981;-77
2020/12/02 11:38:00;;;;;;;31.97;21.80;;;;;;;-2.09;84.27;95333.31;5038077;28;20473;-77
2020/12/02 11:40:34;;;;;;;36.43;20.40;;;;;;;-2.10;83.64;95318.75;5036840;28;20632;-78
2020/12/02 11:43:09;;;;;;;30.93;20.87;;;;;;;-2.13;83.46;95326.72;5038286;28;21020;-77
2020/12/02 11:45:39;;;;;;;30.73;19.97;;;;;;;-2.17;83.99;95319.31;5059635;28;20675;-77